createdAt,value
2023-01-31T00:02:36.346Z,5.58
2023-01-31T00:05:28.906Z,6.83
2023-01-31T00:08:20.506Z,8.03
2023-01-31T00:11:14.866Z,4.87
2023-01-31T00:14:10.798Z,6.37
2023-01-31T00:17:02.440Z,7.30
2023-01-31T00:19:53.970Z,4.50
2023-01-31T00:22:45.383Z,4.50
2023-01-31T00:25:37.034Z,4.30
2023-01-31T00:31:13.341Z,7.20
2023-01-31T00:34:05.216Z,7.92
2023-01-31T00:36:56.909Z,8.23
2023-01-31T00:39:47.971Z,8.98
2023-01-31T00:42:41.439Z,9.33
2023-01-31T00:45:37.015Z,8.58
2023-01-31T00:48:28.176Z,4.70
2023-01-31T00:51:20.872Z,8.80
2023-01-31T00:54:12.965Z,8.40
2023-01-31T00:57:04.475Z,9.43
2023-01-31T00:59:56.322Z,9.40
2023-01-31T01:02:47.886Z,9.93
2023-01-31T01:05:39.673Z,9.88
2023-01-31T01:08:45.750Z,9.80
2023-01-31T01:11:37.764Z,9.45
2023-01-31T01:14:29.723Z,9.70
2023-01-31T01:17:21.792Z,10.13
2023-01-31T01:23:03.586Z,10.43
2023-01-31T01:25:55.288Z,9.65
2023-01-31T01:28:47.158Z,11.12
2023-01-31T01:31:40.424Z,10.50
2023-01-31T01:34:33.157Z,10.75
2023-01-31T01:37:24.851Z,10.30
2023-01-31T01:40:16.573Z,9.95
2023-01-31T01:43:09.497Z,10.40
2023-01-31T01:46:00.800Z,10.13
2023-01-31T01:48:55.469Z,10.40
2023-01-31T01:51:49.296Z,9.95
2023-01-31T01:54:43.718Z,10.25
2023-01-31T01:57:38.149Z,9.35
2023-01-31T02:03:13.295Z,10.32
2023-01-31T02:06:07.568Z,11.20
2023-01-31T02:08:59.424Z,10.63
2023-01-31T02:11:51.398Z,10.80
2023-01-31T02:17:27.966Z,10.03
2023-01-31T02:20:45.660Z,10.78
2023-01-31T02:30:31.620Z,10.53
2023-01-31T02:33:30.474Z,11.85
2023-01-31T02:36:28.062Z,11.03
2023-01-31T02:39:25.903Z,11.45
2023-01-31T02:42:21.590Z,11.33
2023-01-31T02:45:17.155Z,11.78
2023-01-31T02:51:09.703Z,11.57
2023-01-31T02:54:06.147Z,12.30
2023-01-31T02:56:58.600Z,12.33
2023-01-31T02:59:50.009Z,12.35
2023-01-31T03:02:42.485Z,12.47
2023-01-31T03:05:34.257Z,12.65
2023-01-31T03:08:25.952Z,12.50
2023-01-31T03:11:20.682Z,12.18
2023-01-31T03:14:17.167Z,12.70
2023-01-31T03:17:34.393Z,12.30
2023-01-31T03:20:34.172Z,12.03
2023-01-31T03:26:19.517Z,12.53
2023-01-31T03:29:15.549Z,13.22
2023-01-31T03:32:12.137Z,12.07
2023-01-31T03:35:04.836Z,12.15
2023-01-31T03:37:59.609Z,11.68
2023-01-31T03:40:54.276Z,12.25
2023-01-31T03:49:19.998Z,12.37
2023-01-31T03:52:19.312Z,12.10
2023-01-31T03:55:15.148Z,12.40
2023-01-31T04:00:56.428Z,12.90
2023-01-31T04:03:51.082Z,12.82
2023-01-31T04:06:43.632Z,12.50
2023-01-31T04:12:22.274Z,12.75
2023-01-31T04:15:16.482Z,12.40
2023-01-31T04:18:08.342Z,12.28
2023-01-31T04:21:03.641Z,12.60
2023-01-31T04:23:56.659Z,13.10
2023-01-31T04:26:48.082Z,12.78
2023-01-31T04:29:39.625Z,13.13
2023-01-31T04:32:31.870Z,13.13
2023-01-31T04:35:23.634Z,13.15
2023-01-31T04:41:04.730Z,13.20
2023-01-31T04:43:56.311Z,12.85
2023-01-31T04:46:48.111Z,13.15
2023-01-31T04:49:40.052Z,12.33
2023-01-31T04:52:31.768Z,12.90
2023-01-31T04:55:23.740Z,13.00
2023-01-31T04:58:15.347Z,13.08
2023-01-31T05:01:06.828Z,11.83
2023-01-31T05:03:59.112Z,11.90
2023-01-31T05:06:50.583Z,13.28
2023-01-31T05:09:44.330Z,12.75
2023-01-31T05:12:36.330Z,12.07
2023-01-31T05:15:27.956Z,12.73
2023-01-31T05:18:20.079Z,12.18
2023-01-31T05:21:12.880Z,12.78
2023-01-31T05:24:04.807Z,12.58
2023-01-31T05:26:59.417Z,12.80
2023-01-31T05:29:51.482Z,12.65
2023-01-31T05:32:44.739Z,12.60
2023-01-31T05:35:36.507Z,13.65
2023-01-31T05:38:28.376Z,13.00
2023-01-31T05:41:19.958Z,12.40
2023-01-31T05:44:17.777Z,13.28
2023-01-31T05:47:05.267Z,12.53
2023-01-31T05:49:56.816Z,13.25
2023-01-31T05:52:54.956Z,13.13
2023-01-31T05:55:46.649Z,12.10
2023-01-31T05:58:38.282Z,12.55
2023-01-31T06:01:31.084Z,12.68
2023-01-31T06:04:22.985Z,12.20
2023-01-31T06:09:53.237Z,12.28
2023-01-31T06:12:44.606Z,13.40
2023-01-31T06:15:37.924Z,12.80
2023-01-31T06:18:29.358Z,12.85
2023-01-31T06:21:21.424Z,12.53
2023-01-31T06:24:12.994Z,12.63
2023-01-31T06:27:04.464Z,11.75
2023-01-31T06:29:56.681Z,13.48
2023-01-31T06:32:49.538Z,12.80
2023-01-31T06:35:41.816Z,13.22
2023-01-31T06:38:34.239Z,12.88
2023-01-31T06:41:26.398Z,13.20
2023-01-31T06:44:20.122Z,12.93
2023-01-31T06:47:13.325Z,13.58
2023-01-31T06:50:07.586Z,13.05
2023-01-31T06:53:00.266Z,13.13
2023-01-31T06:56:14.120Z,13.90
2023-01-31T06:59:05.763Z,13.13
2023-01-31T07:02:00.858Z,13.15
2023-01-31T07:04:52.923Z,13.32
2023-01-31T07:07:44.827Z,12.93
2023-01-31T07:10:36.561Z,13.80
2023-01-31T07:13:33.663Z,13.00
2023-01-31T07:16:28.772Z,13.88
2023-01-31T07:19:22.091Z,11.80
2023-01-31T07:24:55.558Z,12.40
2023-01-31T07:27:47.313Z,13.15
2023-01-31T07:30:40.307Z,13.78
2023-01-31T07:33:32.683Z,12.85
2023-01-31T07:36:26.123Z,12.68
2023-01-31T07:39:21.978Z,13.22
2023-01-31T07:42:13.418Z,13.20
2023-01-31T07:45:21.956Z,13.25
2023-01-31T07:48:01.274Z,13.35
2023-01-31T07:50:53.161Z,13.70
2023-01-31T07:53:44.428Z,12.80
2023-01-31T07:56:35.968Z,12.63
2023-01-31T07:59:27.673Z,14.63
2023-01-31T08:02:38.101Z,13.80
2023-01-31T08:05:30.333Z,14.28
2023-01-31T08:08:24.109Z,13.20
2023-01-31T08:11:16.021Z,13.98
2023-01-31T08:14:09.457Z,14.00
2023-01-31T08:17:00.952Z,13.72
2023-01-31T08:19:52.879Z,13.53
2023-01-31T08:22:44.756Z,14.18
2023-01-31T08:25:36.889Z,14.63
2023-01-31T08:28:29.545Z,15.18
2023-01-31T08:31:23.289Z,14.78
2023-01-31T08:34:16.977Z,14.20
2023-01-31T08:37:09.067Z,14.00
2023-01-31T08:40:04.235Z,15.45
2023-01-31T08:43:00.818Z,13.38
2023-01-31T08:45:52.484Z,14.38
2023-01-31T08:48:44.505Z,15.00
2023-01-31T08:51:36.707Z,16.52
2023-01-31T08:54:28.098Z,15.32
2023-01-31T08:57:21.107Z,14.00
2023-01-31T09:00:14.976Z,13.45
2023-01-31T09:03:06.825Z,13.85
2023-01-31T09:06:01.372Z,14.18
2023-01-31T09:08:53.950Z,13.75
2023-01-31T09:11:45.627Z,15.18
2023-01-31T09:14:37.463Z,14.43
2023-01-31T09:17:29.848Z,14.85
2023-01-31T09:20:22.182Z,13.45
2023-01-31T09:23:14.091Z,14.00
2023-01-31T09:26:06.796Z,13.85
2023-01-31T09:29:00.134Z,14.85
2023-01-31T09:32:03.408Z,13.43
2023-01-31T09:34:59.192Z,13.10
2023-01-31T09:37:55.375Z,14.23
2023-01-31T09:40:50.259Z,14.47
2023-01-31T09:43:50.255Z,13.08
2023-01-31T09:46:48.418Z,13.75
2023-01-31T09:49:47.294Z,14.23
2023-01-31T09:52:41.391Z,14.47
2023-01-31T09:55:42.987Z,13.62
2023-01-31T09:58:43.095Z,13.60
2023-01-31T10:01:40.704Z,14.70
2023-01-31T10:08:07.548Z,13.38
2023-01-31T10:11:06.619Z,13.15
2023-01-31T10:14:05.302Z,13.60
2023-01-31T10:17:07.061Z,11.73
2023-01-31T10:20:02.553Z,12.80
2023-01-31T10:23:01.589Z,11.93
2023-01-31T10:25:56.661Z,12.93
2023-01-31T10:31:35.143Z,11.25
2023-01-31T10:34:30.982Z,12.20
2023-01-31T10:37:28.880Z,11.75
2023-01-31T10:40:24.461Z,11.93
2023-01-31T10:43:19.377Z,12.03
2023-01-31T10:46:14.781Z,10.95
2023-01-31T10:49:06.401Z,11.78
2023-01-31T10:52:07.231Z,11.60
2023-01-31T10:55:08.292Z,12.10
2023-01-31T10:58:00.554Z,12.95
2023-01-31T11:00:59.564Z,12.58
2023-01-31T11:06:30.937Z,11.73
2023-01-31T11:09:26.277Z,12.50
2023-01-31T11:12:17.999Z,12.28
2023-01-31T11:15:18.430Z,12.53
2023-01-31T11:18:14.629Z,11.55
2023-01-31T11:21:07.680Z,12.13
2023-01-31T11:24:05.062Z,13.25
2023-01-31T11:26:59.836Z,12.13
2023-01-31T11:29:54.876Z,11.40
2023-01-31T11:32:47.911Z,12.23
2023-01-31T11:35:41.025Z,11.50
2023-01-31T11:38:32.703Z,12.10
2023-01-31T11:41:35.986Z,12.45
2023-01-31T11:44:30.648Z,11.33
2023-01-31T11:47:23.738Z,11.53
2023-01-31T11:50:27.555Z,12.23
2023-01-31T11:53:23.311Z,11.73
2023-01-31T11:56:18.545Z,12.35
2023-01-31T11:59:13.490Z,13.45
2023-01-31T12:02:07.758Z,12.90
2023-01-31T12:05:03.868Z,12.20
2023-01-31T12:07:55.938Z,11.53
2023-01-31T12:10:49.002Z,11.93
2023-01-31T12:13:52.025Z,11.48
2023-01-31T12:16:45.239Z,11.95
2023-01-31T12:19:43.985Z,11.30
2023-01-31T12:22:51.496Z,10.78
2023-01-31T12:25:50.432Z,10.93
2023-01-31T12:28:55.249Z,10.95
2023-01-31T12:31:57.757Z,11.40
2023-01-31T12:35:09.873Z,11.25
2023-01-31T12:38:04.307Z,11.73
2023-01-31T12:44:37.328Z,9.98
2023-01-31T12:47:40.796Z,9.68
2023-01-31T12:50:39.577Z,10.55
2023-01-31T12:53:44.264Z,10.13
2023-01-31T12:56:51.187Z,9.48
2023-01-31T12:59:48.501Z,8.15
2023-01-31T13:02:48.530Z,8.23
2023-01-31T13:05:44.948Z,7.58
2023-01-31T13:08:41.198Z,8.28
2023-01-31T13:14:20.058Z,7.35
2023-01-31T13:17:14.229Z,7.15
2023-01-31T13:20:09.714Z,8.30
2023-01-31T13:25:50.310Z,8.25
2023-01-31T13:28:45.540Z,7.83
2023-01-31T13:31:41.120Z,7.53
2023-01-31T13:34:37.687Z,7.45
2023-01-31T13:37:32.032Z,7.50
2023-01-31T13:40:26.360Z,8.18
2023-01-31T13:43:20.318Z,7.78
2023-01-31T13:46:14.371Z,7.72
2023-01-31T13:49:10.110Z,7.37
2023-01-31T13:52:05.493Z,6.60
2023-01-31T13:57:47.834Z,5.12
2023-01-31T14:00:42.393Z,6.17
2023-01-31T14:03:35.393Z,5.92
2023-01-31T14:06:28.314Z,5.12
2023-01-31T14:09:28.881Z,5.45
2023-01-31T14:12:37.892Z,6.87
2023-01-31T14:15:52.157Z,5.35
2023-01-31T14:18:45.844Z,4.70
2023-01-31T14:21:53.646Z,5.60
2023-01-31T14:25:16.520Z,4.95
2023-01-31T14:28:12.300Z,4.50
2023-01-31T14:31:06.975Z,5.90
2023-01-31T14:33:58.745Z,7.78
2023-01-31T14:37:01.465Z,8.38
2023-01-31T14:40:25.675Z,7.28
2023-01-31T14:43:26.357Z,8.38
2023-01-31T14:46:45.863Z,8.98
2023-01-31T14:50:04.149Z,8.00
2023-01-31T14:53:27.371Z,4.72
2023-01-31T14:56:28.997Z,3.95
2023-01-31T14:59:30.111Z,5.35
2023-01-31T15:02:28.153Z,7.10
2023-01-31T15:05:22.925Z,5.17
2023-01-31T15:08:42.984Z,5.62
2023-01-31T15:11:50.722Z,4.05
2023-01-31T15:14:41.788Z,3.60
2023-01-31T15:17:39.282Z,3.12
2023-01-31T15:20:36.815Z,3.65
2023-01-31T15:52:58.665Z,2.65
2023-01-31T15:55:52.096Z,3.87
2023-01-31T15:58:48.052Z,3.42
2023-01-31T16:01:42.788Z,2.90
2023-01-31T16:04:34.723Z,4.28
2023-01-31T16:07:28.895Z,5.78
2023-01-31T16:10:22.690Z,8.08
2023-01-31T16:13:15.429Z,6.33
2023-01-31T16:16:10.760Z,6.53
2023-01-31T16:19:03.571Z,7.70
2023-01-31T16:21:58.122Z,6.95
2023-01-31T16:24:57.460Z,4.47
2023-01-31T16:27:49.006Z,4.45
2023-01-31T16:30:44.141Z,5.65
2023-01-31T16:33:36.926Z,6.53
2023-01-31T16:36:32.466Z,7.00
2023-01-31T16:39:31.501Z,6.85
2023-01-31T16:42:28.503Z,5.67
2023-01-31T16:45:35.200Z,6.60
2023-01-31T16:48:37.457Z,4.35
2023-01-31T16:51:48.135Z,4.55
2023-01-31T16:54:49.943Z,5.12
2023-01-31T16:57:42.251Z,5.65
2023-01-31T17:00:39.184Z,4.10
2023-01-31T17:03:36.050Z,4.75
2023-01-31T17:06:27.593Z,4.00
2023-01-31T17:09:22.677Z,4.42
2023-01-31T17:12:21.189Z,4.35
